Time;durP1;ratioP1;P1;durP2;ratioP2;P2;SDS_P1;SDS_P2;PMS_P1;PMS_P2;Temp;Humidity;BMP_temperature;BMP_pressure;BME280_temperature;BME280_humidity;BME280_pressure;Samples;Min_cycle;Max_cycle;Signal;HPM_P1;HPM_P2
2021/01/11 00:02:04;;;;;;;4.90;2.97;;;;;;;8.61;77.46;99559.88;4962898;28;20034;-78
2021/01/11 00:04:30;;;;;;;7.30;5.25;;;;;;;8.56;77.72;99547.09;4962646;28;20034;-78
2021/01/11 00:06:56;;;;;;;7.25;5.15;;;;;;;8.56;78.05;99557.38;4963089;28;20477;-78
2021/01/11 00:09:22;;;;;;;4.57;3.28;;;;;;;8.66;77.49;99552.06;4963005;28;20041;-77
2021/01/11 00:11:48;;;;;;;3.65;3.13;;;;;;;8.78;77.08;99553.06;4962688;28;20030;-77
2021/01/11 00:14:14;;;;;;;4.40;3.10;;;;;;;8.69;77.38;99549.75;4966260;28;20378;-77
2021/01/11 00:16:40;;;;;;;7.50;3.67;;;;;;;8.70;78.43;99549.38;4966691;28;20031;-77
2021/01/11 00:19:05;;;;;;;3.85;3.42;;;;;;;8.59;78.34;99556.66;4951003;28;20038;-78
2021/01/11 00:21:31;;;;;;;7.13;4.05;;;;;;;8.58;78.10;99555.88;4966292;28;20031;-77
2021/01/11 00:23:57;;;;;;;6.22;4.47;;;;;;;8.56;77.51;99547.09;4965987;28;20062;-78
2021/01/11 00:26:22;;;;;;;7.78;3.40;;;;;;;8.66;77.93;99562.34;4966551;28;20082;-78
2021/01/11 00:28:48;;;;;;;5.50;3.88;;;;;;;8.66;77.07;99551.25;4966361;28;20023;-78
2021/01/11 00:31:24;;;;;;;8.75;4.03;;;;;;;8.58;77.71;99549.53;4966831;28;20033;-78
2021/01/11 00:33:50;;;;;;;4.45;3.58;;;;;;;8.54;78.02;99559.75;4966679;28;20023;-78
2021/01/11 00:36:16;;;;;;;4.22;2.92;;;;;;;8.45;78.73;99565.47;4966472;28;20038;-78
2021/01/11 00:38:41;;;;;;;6.22;4.35;;;;;;;8.51;78.41;99566.00;4950773;28;20038;-78
2021/01/11 00:41:07;;;;;;;4.80;3.95;;;;;;;8.54;77.26;99576.38;4966232;28;20034;-78
2021/01/11 00:43:33;;;;;;;6.80;3.85;;;;;;;8.49;78.56;99585.78;4965868;28;20122;-77
2021/01/11 00:45:58;;;;;;;6.22;5.55;;;;;;;8.55;78.08;99594.59;4966080;28;20027;-78
2021/01/11 00:48:24;;;;;;;8.82;5.28;;;;;;;8.51;78.03;99588.19;4965272;28;20031;-75
2021/01/11 00:50:49;;;;;;;8.90;4.63;;;;;;;8.38;79.50;99585.53;4966087;28;20050;-78
2021/01/11 00:53:15;;;;;;;7.10;4.97;;;;;;;8.35;79.17;99586.22;4966250;28;20034;-77
2021/01/11 00:55:41;;;;;;;8.68;5.40;;;;;;;8.31;80.51;99588.13;4965858;28;20030;-78
2021/01/11 00:58:06;;;;;;;13.52;6.35;;;;;;;8.33;80.28;99583.03;4965915;28;20087;-77
2021/01/11 01:00:32;;;;;;;7.68;4.03;;;;;;;8.27;79.62;99598.34;4966103;28;20026;-78
2021/01/11 01:02:57;;;;;;;12.63;6.80;;;;;;;8.47;78.22;99610.31;4965330;28;20416;-77
2021/01/11 01:05:23;;;;;;;10.02;6.43;;;;;;;8.63;78.29;99615.78;4966047;28;20038;-77
2021/01/11 01:07:49;;;;;;;11.48;5.93;;;;;;;8.54;78.44;99612.41;4965465;28;20434;-77
2021/01/11 01:10:14;;;;;;;13.90;6.55;;;;;;;8.55;79.36;99614.03;4965287;28;20038;-78
2021/01/11 01:12:41;;;;;;;13.63;7.50;;;;;;;8.49;80.00;99623.78;4965758;28;20031;-78
2021/01/11 01:15:08;;;;;;;15.25;7.65;;;;;;;8.44;80.64;99624.88;4965677;28;20027;-78
2021/01/11 01:17:34;;;;;;;11.15;7.18;;;;;;;8.48;80.69;99622.19;4966484;28;20038;-78
2021/01/11 01:20:00;;;;;;;9.27;6.55;;;;;;;8.44;81.07;99615.75;4967861;28;20077;-78
2021/01/11 01:22:26;;;;;;;9.15;6.18;;;;;;;8.41;81.00;99620.03;4968230;28;20114;-78
2021/01/11 01:24:51;;;;;;;9.82;5.60;;;;;;;8.42;80.46;99623.66;4965634;28;20129;-78
2021/01/11 01:27:17;;;;;;;10.23;6.13;;;;;;;8.33;80.72;99621.84;4965708;28;20034;-77
2021/01/11 01:29:42;;;;;;;9.52;6.03;;;;;;;8.31;79.98;99624.16;4965329;28;20481;-78
2021/01/11 01:32:08;;;;;;;9.48;5.88;;;;;;;8.32;79.87;99628.53;4964772;28;20034;-78
2021/01/11 01:34:34;;;;;;;8.05;5.70;;;;;;;8.29;80.53;99634.00;4965209;28;20078;-77
2021/01/11 01:36:59;;;;;;;8.35;6.38;;;;;;;8.25;80.98;99642.22;4965009;28;20026;-78
2021/01/11 01:39:25;;;;;;;14.50;7.03;;;;;;;8.28;81.38;99651.78;4964927;28;20035;-77
2021/01/11 01:41:50;;;;;;;11.40;7.18;;;;;;;8.24;81.79;99642.59;4965105;28;20130;-77
2021/01/11 01:44:16;;;;;;;10.52;7.15;;;;;;;8.25;81.57;99653.31;4965252;28;20058;-77
2021/01/11 01:46:41;;;;;;;11.23;8.40;;;;;;;8.26;81.38;99654.94;4964944;28;20035;-77
2021/01/11 01:49:08;;;;;;;12.48;8.20;;;;;;;8.35;80.89;99647.22;4964587;28;20510;-77
2021/01/11 01:51:34;;;;;;;10.07;7.70;;;;;;;8.34;81.22;99655.91;4965547;28;20027;-77
2021/01/11 01:54:03;;;;;;;12.55;8.73;;;;;;;8.26;81.36;99649.41;4965144;28;20035;-77
2021/01/11 01:56:29;;;;;;;13.50;9.63;;;;;;;8.23;80.95;99650.09;4965105;28;20037;-78
2021/01/11 01:58:56;;;;;;;13.82;8.55;;;;;;;8.18;81.52;99647.59;4964583;28;20070;-78
2021/01/11 02:01:21;;;;;;;10.85;8.27;;;;;;;8.12;81.86;99654.59;4964425;28;20034;-78
2021/01/11 02:03:48;;;;;;;13.25;7.97;;;;;;;8.07;82.16;99652.09;4964802;28;20031;-77
2021/01/11 02:06:14;;;;;;;10.55;8.32;;;;;;;8.07;82.51;99655.66;4964704;28;20123;-77
2021/01/11 02:08:45;;;;;;;10.00;8.15;;;;;;;8.04;82.35;99658.34;4964355;28;20034;-77
2021/01/11 02:11:17;;;;;;;13.43;9.00;;;;;;;8.04;83.17;99658.34;4964866;28;20090;-78
2021/01/11 02:14:00;;;;;;;15.18;9.38;;;;;;;8.06;82.82;99659.59;4963963;28;20081;-77
2021/01/11 02:16:51;;;;;;;13.70;8.88;;;;;;;8.18;81.52;99655.13;4964463;28;20031;-78
2021/01/11 02:19:17;;;;;;;13.32;7.50;;;;;;;8.16;80.78;99643.59;4964414;28;20031;-78
2021/01/11 02:21:51;;;;;;;13.18;7.28;;;;;;;8.11;81.10;99647.44;4964479;28;20090;-77
2021/01/11 02:24:35;;;;;;;10.98;6.80;;;;;;;8.09;81.51;99639.47;4963945;28;20031;-78
2021/01/11 02:27:13;;;;;;;;;;;;;;;8.01;81.32;99643.25;4964214;28;20033;-77
2021/01/11 02:30:02;;;;;;;9.40;6.90;;;;;;;8.00;81.33;99646.38;4964096;28;19921;-78
2021/01/11 02:32:30;;;;;;;10.90;6.72;;;;;;;7.94;82.17;99642.28;4964002;28;20030;-77
2021/01/11 02:34:59;;;;;;;12.93;6.78;;;;;;;7.92;81.70;99652.91;4964018;28;20540;-78
2021/01/11 02:37:25;;;;;;;9.77;7.20;;;;;;;7.87;82.06;99643.69;4964857;28;20027;-77
2021/01/11 02:39:51;;;;;;;9.85;7.05;;;;;;;7.87;81.97;99654.75;4964738;28;20042;-78
2021/01/11 02:42:17;;;;;;;10.32;7.15;;;;;;;7.85;82.18;99651.56;4964490;28;20038;-78
2021/01/11 02:44:42;;;;;;;12.63;8.52;;;;;;;7.85;82.38;99651.56;4963932;28;20042;-78
2021/01/11 02:47:08;;;;;;;8.82;6.85;;;;;;;7.84;82.09;99658.28;4964541;28;20034;-77
2021/01/11 02:49:43;;;;;;;9.38;7.40;;;;;;;7.91;81.58;99659.59;4963914;28;20062;-77
2021/01/11 02:52:35;;;;;;;14.90;7.38;;;;;;;7.89;82.11;99651.66;4963790;28;20031;-78
2021/01/11 02:55:07;;;;;;;15.13;7.15;;;;;;;7.93;82.68;99662.81;4952416;28;20497;-78
2021/01/11 02:57:53;;;;;;;15.65;7.05;;;;;;;7.95;82.69;99654.97;4964511;28;20055;-78
2021/01/11 03:00:21;;;;;;;16.02;6.90;;;;;;;7.94;83.34;99654.16;4964601;28;20039;-78
2021/01/11 03:02:48;;;;;;;12.32;6.85;;;;;;;7.99;82.58;99658.59;4964809;28;20030;-78
2021/01/11 03:05:15;;;;;;;10.18;6.28;;;;;;;7.96;82.71;99667.66;4963529;28;20037;-77
2021/01/11 03:07:54;;;;;;;11.85;5.90;;;;;;;7.90;82.72;99674.63;4963481;28;20031;-78
2021/01/11 03:10:19;;;;;;;7.40;5.05;;;;;;;7.86;83.25;99675.31;4963741;28;20031;-78
2021/01/11 03:12:45;;;;;;;9.05;5.78;;;;;;;7.94;83.00;99667.22;4964051;28;20027;-77
2021/01/11 03:15:11;;;;;;;7.53;5.22;;;;;;;8.00;81.46;99668.56;4964330;28;20385;-77
2021/01/11 03:17:36;;;;;;;6.10;4.57;;;;;;;7.95;80.92;99666.03;4963428;28;20055;-77
2021/01/11 03:20:02;;;;;;;7.80;4.22;;;;;;;7.88;81.29;99672.19;4963638;28;20035;-77
2021/01/11 03:22:28;;;;;;;6.93;5.13;;;;;;;7.87;80.84;99668.63;4963335;28;20381;-77
2021/01/11 03:24:53;;;;;;;11.02;5.85;;;;;;;7.81;81.63;99664.50;4963606;28;20038;-78
2021/01/11 03:27:19;;;;;;;8.25;4.70;;;;;;;7.77;82.58;99648.97;4962947;28;20117;-77
2021/01/11 03:29:44;;;;;;;5.53;4.43;;;;;;;7.74;82.31;99655.22;4963061;28;20031;-77
2021/01/11 03:32:10;;;;;;;7.15;4.53;;;;;;;7.74;82.50;99661.56;4963586;28;20027;-77
2021/01/11 03:34:36;;;;;;;6.28;4.63;;;;;;;7.71;82.90;99661.47;4963695;28;20039;-77
2021/01/11 03:37:01;;;;;;;4.90;4.03;;;;;;;7.70;82.87;99662.63;4963167;28;20043;-77
2021/01/11 03:39:27;;;;;;;4.78;3.92;;;;;;;7.74;82.88;99658.78;4963620;28;20034;-77
2021/01/11 03:41:52;;;;;;;5.25;3.80;;;;;;;7.75;82.74;99662.38;4964281;28;20493;-78
2021/01/11 03:44:18;;;;;;;6.80;4.22;;;;;;;7.73;82.32;99671.03;4964352;28;20035;-78
2021/01/11 03:46:43;;;;;;;9.25;5.70;;;;;;;7.79;82.40;99669.63;4965318;28;20034;-78
2021/01/11 03:49:09;;;;;;;70.68;39.28;;;;;;;7.84;80.79;99669.34;4963763;28;20482;-77
2021/01/11 03:51:34;;;;;;;66.22;35.83;;;;;;;7.76;81.08;99664.78;4962312;28;20564;-77
2021/01/11 03:54:00;;;;;;;22.95;13.27;;;;;;;7.84;80.98;99661.03;4962940;28;20062;-77
2021/01/11 03:56:26;;;;;;;13.02;7.18;;;;;;;7.72;80.86;99647.25;4962543;28;20027;-77
2021/01/11 03:58:51;;;;;;;9.10;6.05;;;;;;;7.68;81.36;99651.91;4962281;28;20473;-77
2021/01/11 04:01:17;;;;;;;30.70;20.40;;;;;;;7.63;81.25;99646.66;4962389;28;20039;-77
2021/01/11 04:03:42;;;;;;;21.67;12.95;;;;;;;7.77;80.29;99651.72;4961866;28;20035;-78
2021/01/11 04:06:08;;;;;;;14.65;10.00;;;;;;;7.67;80.68;99650.31;4962348;28;20030;-78
2021/01/11 04:08:34;;;;;;;14.82;10.25;;;;;;;7.64;81.50;99651.00;4962144;28;20027;-77
2021/01/11 04:10:59;;;;;;;13.82;10.80;;;;;;;7.59;81.95;99654.84;4962616;28;20023;-77
2021/01/11 04:13:25;;;;;;;11.25;8.82;;;;;;;7.63;82.25;99657.72;4962121;28;20084;-77
2021/01/11 04:15:51;;;;;;;6.40;5.30;;;;;;;7.58;82.78;99660.75;4961839;28;20077;-77
2021/01/11 04:18:16;;;;;;;7.35;5.05;;;;;;;7.53;82.78;99661.00;4963471;28;20127;-77
2021/01/11 04:20:42;;;;;;;4.35;3.95;;;;;;;7.58;83.12;99664.31;4962405;28;20377;-77
2021/01/11 04:23:08;;;;;;;3.80;3.33;;;;;;;7.56;82.81;99665.81;4962991;28;20039;-77
2021/01/11 04:25:33;;;;;;;6.32;4.35;;;;;;;7.55;83.42;99675.28;4962466;28;20030;-78
2021/01/11 04:28:02;;;;;;;26.23;13.77;;;;;;;7.55;83.40;99681.63;4962793;28;20423;-77
2021/01/11 04:30:28;;;;;;;25.45;15.23;;;;;;;7.58;83.89;99680.13;4962478;28;20095;-77
2021/01/11 04:32:54;;;;;;;15.02;11.43;;;;;;;7.56;83.62;99682.44;4962173;28;20061;-77
2021/01/11 04:35:21;;;;;;;8.13;4.43;;;;;;;7.50;82.49;99687.41;4961905;28;20089;-77
2021/01/11 04:37:48;;;;;;;12.20;3.78;;;;;;;7.54;82.31;99691.09;4962923;28;20027;-77
2021/01/11 04:40:14;;;;;;;4.10;3.40;;;;;;;7.53;82.48;99694.22;4962204;28;20033;-77
2021/01/11 04:43:03;;;;;;;3.20;2.90;;;;;;;7.53;82.38;99688.69;4961890;28;20055;-77
2021/01/11 04:45:30;;;;;;;4.75;4.00;;;;;;;7.55;82.56;99691.91;4961363;28;20031;-77
2021/01/11 04:47:58;;;;;;;3.55;3.25;;;;;;;7.50;83.21;99695.72;4962257;28;20126;-77
2021/01/11 04:50:25;;;;;;;5.18;3.60;;;;;;;7.48;83.04;99694.50;4959358;29;20047;-78
2021/01/11 04:52:51;;;;;;;6.85;3.60;;;;;;;7.45;82.85;99695.19;4943861;29;20162;-77
2021/01/11 04:55:18;;;;;;;6.03;3.50;;;;;;;7.43;82.55;99691.97;4943106;29;20368;-77
2021/01/11 04:57:54;;;;;;;6.60;4.05;;;;;;;7.59;81.65;99698.34;4943753;28;20031;-77
2021/01/11 05:00:28;;;;;;;5.05;3.50;;;;;;;7.52;81.52;99706.47;4946009;29;20031;-77
2021/01/11 05:03:02;;;;;;;4.35;3.10;;;;;;;7.48;81.90;99716.63;4945823;29;20046;-77
2021/01/11 05:05:30;;;;;;;4.25;3.30;;;;;;;7.43;81.47;99709.38;4946630;29;20035;-77
2021/01/11 05:07:56;;;;;;;4.22;3.05;;;;;;;7.50;81.10;99709.56;4945958;29;20023;-77
2021/01/11 05:10:27;;;;;;;6.55;3.70;;;;;;;7.57;81.14;99707.00;4945831;29;20035;-77
2021/01/11 05:12:59;;;;;;;6.53;4.65;;;;;;;7.56;81.09;99710.13;4945816;29;20035;-77
2021/01/11 05:15:27;;;;;;;5.03;3.85;;;;;;;7.61;80.94;99718.97;4946192;29;20038;-77
2021/01/11 05:17:53;;;;;;;6.10;4.13;;;;;;;7.60;80.87;99708.25;4946542;29;20382;-77
2021/01/11 05:20:24;;;;;;;4.78;4.05;;;;;;;7.58;80.84;99724.44;4946014;29;20108;-77
2021/01/11 05:22:52;;;;;;;4.97;3.83;;;;;;;7.62;79.55;99725.34;4946526;29;20055;-77
2021/01/11 05:25:23;;;;;;;5.13;3.40;;;;;;;7.61;80.51;99720.94;4962909;29;20121;-77
2021/01/11 05:28:14;;;;;;;6.13;3.83;;;;;;;7.60;81.11;99728.44;4945460;29;20094;-77
2021/01/11 05:30:44;;;;;;;8.32;3.67;;;;;;;7.60;80.99;99722.09;4946133;29;20054;-77
2021/01/11 05:33:16;;;;;;;4.78;3.55;;;;;;;7.65;80.78;99712.72;4945380;29;20167;-77
2021/01/11 05:35:42;;;;;;;3.97;3.60;;;;;;;7.63;81.41;99720.59;4943754;29;20368;-77
2021/01/11 05:38:19;;;;;;;3.28;2.90;;;;;;;7.59;80.80;99717.72;4945945;29;20034;-77
2021/01/11 05:40:46;;;;;;;5.70;3.22;;;;;;;7.55;80.85;99720.38;4945766;29;20049;-77
2021/01/11 05:43:20;;;;;;;8.25;3.58;;;;;;;7.60;80.70;99724.88;4945661;29;20461;-77
2021/01/11 05:45:46;;;;;;;;;;;;;;;7.57;80.99;99720.06;4930524;29;20039;-77
2021/01/11 05:48:13;;;;;;;5.55;3.85;;;;;;;7.47;81.40;99718.59;4945780;29;19918;-77
2021/01/11 05:50:44;;;;;;;7.22;4.35;;;;;;;7.49;80.71;99726.53;4963497;28;20114;-77
2021/01/11 05:53:20;;;;;;;7.68;4.93;;;;;;;7.45;81.82;99731.16;4965101;28;20085;-77
2021/01/11 05:55:53;;;;;;;6.05;4.25;;;;;;;7.45;81.01;99736.69;4964751;28;20042;-77
2021/01/11 05:58:25;;;;;;;4.65;4.00;;;;;;;7.33;81.38;99738.38;4964867;28;20026;-77
2021/01/11 06:00:50;;;;;;;5.80;4.25;;;;;;;7.29;80.78;99739.41;4964804;28;20426;-78
2021/01/11 06:03:16;;;;;;;6.25;4.30;;;;;;;7.29;80.82;99733.88;4964963;28;20093;-77
2021/01/11 06:05:43;;;;;;;7.60;4.30;;;;;;;7.29;80.77;99729.16;4963942;28;20034;-78
2021/01/11 06:08:14;;;;;;;9.07;5.18;;;;;;;7.27;81.09;99733.44;4964609;28;20134;-77
2021/01/11 06:10:40;;;;;;;7.03;5.80;;;;;;;7.16;81.76;99746.16;4964204;28;20609;-78
2021/01/11 06:13:10;;;;;;;10.93;6.63;;;;;;;7.23;81.33;99744.41;4966157;28;20038;-77
2021/01/11 06:15:38;;;;;;;12.75;7.70;;;;;;;7.24;81.63;99745.19;4981822;28;20378;-77
2021/01/11 06:18:08;;;;;;;10.35;7.38;;;;;;;7.21;81.53;99748.69;4961937;28;20063;-77
2021/01/11 06:20:34;;;;;;;13.75;6.63;;;;;;;7.14;81.18;99749.28;4961734;28;20382;-77
2021/01/11 06:23:01;;;;;;;10.13;7.07;;;;;;;6.99;81.29;99736.19;4960761;28;20041;-77
2021/01/11 06:25:30;;;;;;;13.15;7.88;;;;;;;7.09;81.95;99757.81;4962276;28;20030;-78
2021/01/11 06:28:03;;;;;;;12.15;7.88;;;;;;;7.10;81.83;99764.97;4961416;28;20027;-77
2021/01/11 06:30:33;;;;;;;10.93;6.57;;;;;;;7.01;81.18;99750.47;4961846;28;20117;-77
2021/01/11 06:33:09;;;;;;;11.13;7.18;;;;;;;7.01;81.42;99756.78;4962767;28;20420;-77
2021/01/11 06:35:47;;;;;;;12.85;6.90;;;;;;;7.10;81.15;99756.66;4962052;28;20031;-78
2021/01/11 06:38:20;;;;;;;10.07;6.90;;;;;;;7.15;80.58;99761.97;4961543;28;20061;-77
2021/01/11 06:40:54;;;;;;;8.50;5.40;;;;;;;7.23;81.07;99769.28;4961867;28;20037;-77
2021/01/11 06:43:22;;;;;;;8.70;5.85;;;;;;;7.57;79.54;99767.13;4962344;28;20031;-77
2021/01/11 06:45:49;;;;;;;9.80;6.03;;;;;;;7.96;77.27;99762.63;4963525;28;20075;-77
2021/01/11 06:48:18;;;;;;;10.10;5.88;;;;;;;8.48;75.47;99771.91;4963059;28;20090;-77
2021/01/11 06:50:46;;;;;;;8.50;5.72;;;;;;;8.95;74.53;99768.22;4980808;28;20077;-77
2021/01/11 06:53:12;;;;;;;10.00;6.15;;;;;;;9.39;72.44;99772.41;4962897;28;20443;-77
2021/01/11 06:55:38;;;;;;;7.75;6.38;;;;;;;9.87;70.28;99772.97;4962726;28;20037;-77
2021/01/11 06:58:04;;;;;;;8.70;6.55;;;;;;;10.22;68.15;99772.00;4964260;28;20027;-77
2021/01/11 07:00:39;;;;;;;11.63;6.97;;;;;;;10.74;66.44;99770.50;4961944;28;20445;-77
2021/01/11 07:03:07;;;;;;;11.80;7.55;;;;;;;11.25;65.00;99781.19;4961938;28;20050;-77
2021/01/11 07:05:35;;;;;;;10.40;8.00;;;;;;;11.62;64.32;99794.41;4980712;28;20129;-77
2021/01/11 07:08:16;;;;;;;8.25;6.30;;;;;;;11.64;63.25;99781.69;4961466;28;20034;-77
2021/01/11 07:10:43;;;;;;;7.68;6.32;;;;;;;11.88;62.23;99797.16;4961794;28;20359;-77
2021/01/11 07:13:17;;;;;;;6.03;5.18;;;;;;;11.98;60.25;99790.06;4978543;28;20377;-77
2021/01/11 07:15:52;;;;;;;5.65;4.75;;;;;;;12.10;60.79;99805.75;4961706;28;20030;-77
2021/01/11 07:18:36;;;;;;;8.60;4.72;;;;;;;12.59;59.43;99814.59;4962341;28;20041;-77
2021/01/11 07:21:13;;;;;;;4.45;3.65;;;;;;;12.60;58.42;99812.59;4962038;28;20201;-77
2021/01/11 07:23:39;;;;;;;6.43;4.10;;;;;;;12.81;58.38;99815.56;4962507;28;20159;-77
2021/01/11 07:26:20;;;;;;;6.78;3.97;;;;;;;13.30;57.64;99821.91;4962594;28;20027;-77
2021/01/11 07:28:59;;;;;;;7.95;4.07;;;;;;;12.44;58.82;99824.00;4962809;28;20057;-77
2021/01/11 07:31:33;;;;;;;5.30;4.00;;;;;;;11.98;60.41;99824.31;4961920;28;20026;-77
2021/01/11 07:34:24;;;;;;;8.35;6.43;;;;;;;11.31;62.57;99829.00;4962716;28;20034;-78
2021/01/11 07:36:51;;;;;;;10.43;6.50;;;;;;;10.77;64.32;99833.75;4964454;28;20051;-77
2021/01/11 07:39:19;;;;;;;5.40;4.93;;;;;;;10.31;65.55;99849.66;4964067;28;20470;-77
2021/01/11 07:41:55;;;;;;;10.68;5.50;;;;;;;10.10;67.20;99850.00;4962743;28;20047;-77
2021/01/11 07:44:27;;;;;;;7.30;5.57;;;;;;;9.89;68.33;99853.16;4963988;28;20049;-77
2021/01/11 07:46:56;;;;;;;8.25;5.55;;;;;;;9.74;68.55;99852.06;4963884;28;20474;-77
2021/01/11 07:49:23;;;;;;;8.73;4.72;;;;;;;9.70;69.01;99859.53;4955574;29;20062;-77
2021/01/11 07:51:50;;;;;;;9.50;6.82;;;;;;;9.61;69.37;99864.50;4942162;29;20058;-77
2021/01/11 07:54:23;;;;;;;5.00;4.25;;;;;;;9.51;69.18;99879.75;4939230;29;20047;-78
2021/01/11 07:56:50;;;;;;;4.20;3.55;;;;;;;9.51;68.70;99878.97;4938791;29;20027;-77
2021/01/11 07:59:16;;;;;;;3.53;2.90;;;;;;;9.60;68.87;99882.34;4938218;29;20039;-77
2021/01/11 08:01:44;;;;;;;5.07;3.70;;;;;;;9.65;68.22;99890.38;4939178;29;20402;-77
2021/01/11 08:04:13;;;;;;;4.10;3.60;;;;;;;9.84;66.81;99893.16;4938978;29;20035;-77
2021/01/11 08:06:43;;;;;;;7.78;5.78;;;;;;;9.79;68.04;99900.97;4938439;29;20501;-77
2021/01/11 08:09:11;;;;;;;9.63;7.10;;;;;;;9.80;68.85;99902.59;4939518;29;20035;-77
2021/01/11 08:11:36;;;;;;;6.85;5.15;;;;;;;9.78;68.76;99905.75;4939439;29;20023;-77
2021/01/11 08:14:09;;;;;;;7.70;4.65;;;;;;;9.81;68.99;99905.03;4940092;29;20091;-77
2021/01/11 08:16:36;;;;;;;10.07;7.10;;;;;;;9.71;68.83;99908.38;4957075;29;20467;-77
2021/01/11 08:19:09;;;;;;;6.85;5.40;;;;;;;9.77;67.80;99914.44;4939184;29;20130;-77
2021/01/11 08:21:36;;;;;;;5.40;4.40;;;;;;;9.76;68.58;99921.97;4939591;29;20035;-77
2021/01/11 08:24:09;;;;;;;8.75;4.75;;;;;;;9.88;68.58;99921.84;4941994;29;20035;-77
2021/01/11 08:26:50;;;;;;;6.30;3.38;;;;;;;10.45;66.26;99934.16;4941478;29;20031;-77
2021/01/11 08:29:17;;;;;;;6.68;3.70;;;;;;;11.21;64.41;99934.28;4942508;29;20019;-77
2021/01/11 08:31:45;;;;;;;4.40;3.35;;;;;;;11.28;63.64;99939.97;4936499;29;20062;-76
2021/01/11 08:34:12;;;;;;;4.15;3.42;;;;;;;12.16;59.96;99943.66;4941551;29;20123;-77
2021/01/11 08:36:38;;;;;;;2.53;2.30;;;;;;;12.50;57.96;99956.41;4926310;29;20028;-77
2021/01/11 08:39:15;;;;;;;5.82;2.83;;;;;;;12.45;58.48;99953.97;4926432;29;20122;-77
2021/01/11 08:41:54;;;;;;;4.53;2.50;;;;;;;12.78;58.00;99963.47;4943167;29;20035;-77
2021/01/11 08:44:31;;;;;;;4.45;2.63;;;;;;;12.79;58.33;99967.91;4943641;29;20061;-78
2021/01/11 08:47:08;;;;;;;3.42;3.13;;;;;;;13.11;57.68;99965.41;4923101;29;20114;-77
2021/01/11 08:49:36;;;;;;;4.85;3.88;;;;;;;12.79;58.79;99974.28;4924920;29;20114;-77
2021/01/11 08:52:09;;;;;;;11.70;5.22;;;;;;;12.63;58.05;99975.72;4938797;29;20131;-77
2021/01/11 08:54:35;;;;;;;7.03;4.00;;;;;;;12.27;59.65;99986.44;4939407;29;20043;-77
2021/01/11 08:57:10;;;;;;;4.05;3.55;;;;;;;11.92;60.53;99976.38;4925034;29;20035;-77
2021/01/11 08:59:36;;;;;;;6.70;4.07;;;;;;;11.54;61.21;99986.56;4922810;29;20059;-76
2021/01/11 09:02:02;;;;;;;5.32;3.47;;;;;;;11.18;62.09;99993.50;4937809;29;20131;-77
2021/01/11 09:04:35;;;;;;;7.80;3.40;;;;;;;11.09;62.77;99998.53;4923245;29;20102;-77
2021/01/11 09:07:06;;;;;;;6.05;4.10;;;;;;;10.78;64.50;99999.56;4938724;29;20032;-77
2021/01/11 09:09:33;;;;;;;6.63;3.60;;;;;;;10.72;64.96;100010.19;4923163;29;20118;-77
2021/01/11 09:12:08;;;;;;;4.35;3.50;;;;;;;10.61;65.59;100008.38;4922918;29;20035;-77
2021/01/11 09:14:51;;;;;;;8.75;6.45;;;;;;;10.57;65.61;100001.94;4938398;29;20087;-77
2021/01/11 09:17:25;;;;;;;8.35;6.57;;;;;;;10.84;64.65;100009.22;4922574;29;20062;-77
2021/01/11 09:19:50;;;;;;;12.23;8.40;;;;;;;10.75;65.03;100003.06;4939819;29;20039;-77
2021/01/11 09:22:16;;;;;;;7.90;6.55;;;;;;;10.91;65.27;100000.19;4924085;29;20042;-77
2021/01/11 09:24:42;;;;;;;8.27;5.82;;;;;;;11.01;64.30;100008.72;4923915;29;20043;-77
2021/01/11 09:27:09;;;;;;;5.30;4.55;;;;;;;11.05;64.92;100011.59;4922477;29;20122;-77
2021/01/11 09:29:37;;;;;;;5.63;4.50;;;;;;;11.15;64.38;100015.75;4938188;29;20027;-77
2021/01/11 09:32:02;;;;;;;4.32;3.92;;;;;;;11.20;64.77;100015.44;4938442;29;20130;-77
2021/01/11 09:34:28;;;;;;;7.45;5.05;;;;;;;11.23;64.20;100009.09;4922888;29;20055;-77
2021/01/11 09:36:54;;;;;;;11.57;7.60;;;;;;;11.29;65.91;100010.41;4922587;29;20039;-77
2021/01/11 09:39:19;;;;;;;11.32;9.02;;;;;;;11.24;66.69;100014.34;4922079;29;20093;-77
2021/01/11 09:41:48;;;;;;;11.02;9.10;;;;;;;11.20;66.24;100012.66;4922477;29;20036;-77
2021/01/11 09:44:15;;;;;;;12.15;9.50;;;;;;;11.28;67.16;100011.59;4938322;29;20036;-77
2021/01/11 09:46:43;;;;;;;12.70;10.90;;;;;;;11.36;66.76;100009.75;4921946;29;20027;-77
2021/01/11 09:49:09;;;;;;;12.02;10.05;;;;;;;11.33;66.02;100004.91;4923303;29;20452;-77
2021/01/11 09:51:34;;;;;;;13.85;9.85;;;;;;;11.61;66.05;100008.19;4922460;29;20063;-77
2021/01/11 09:54:00;;;;;;;12.55;9.07;;;;;;;11.75;64.94;100000.00;4922421;29;20039;-77
2021/01/11 09:56:26;;;;;;;15.85;10.65;;;;;;;11.89;64.19;100007.81;4924560;29;20035;-77
2021/01/11 09:58:52;;;;;;;12.75;7.95;;;;;;;11.67;63.98;100008.66;4922180;29;20043;-77
2021/01/11 10:01:18;;;;;;;7.95;6.68;;;;;;;11.77;62.81;100008.00;4923886;29;20027;-77
2021/01/11 10:03:44;;;;;;;9.43;6.43;;;;;;;11.95;63.32;100003.53;4924584;29;20066;-77
2021/01/11 10:06:09;;;;;;;9.20;7.07;;;;;;;12.32;62.09;100005.63;4922035;29;20027;-78
2021/01/11 10:08:35;;;;;;;11.50;7.43;;;;;;;11.99;61.90;100003.59;4921798;29;20032;-76
2021/01/11 10:11:04;;;;;;;10.30;8.05;;;;;;;12.34;60.59;99997.66;4921574;29;20028;-77
2021/01/11 10:13:30;;;;;;;10.57;7.43;;;;;;;12.46;60.79;99999.41;4922510;29;20550;-77
2021/01/11 10:15:55;;;;;;;15.85;9.00;;;;;;;13.08;59.64;99994.09;4921958;29;20035;-77
2021/01/11 10:18:21;;;;;;;13.18;10.65;;;;;;;13.90;58.48;99991.97;4937333;29;20042;-77
2021/01/11 10:20:46;;;;;;;10.45;8.05;;;;;;;14.38;54.53;99987.06;4921724;29;20031;-77
2021/01/11 10:23:12;;;;;;;15.85;9.38;;;;;;;14.23;53.97;99990.19;4921202;29;20107;-77
2021/01/11 10:25:38;;;;;;;8.85;6.85;;;;;;;14.49;53.75;99989.13;4921314;29;20027;-77
2021/01/11 10:28:04;;;;;;;8.75;7.28;;;;;;;14.48;53.84;99982.72;4921268;29;20039;-77
2021/01/11 10:30:29;;;;;;;7.82;6.38;;;;;;;15.36;52.49;99980.50;4921145;29;20036;-77
2021/01/11 10:32:55;;;;;;;11.20;6.50;;;;;;;14.92;51.54;99978.88;4936738;29;20124;-77
2021/01/11 10:35:20;;;;;;;12.15;6.32;;;;;;;15.06;52.26;99978.06;4920998;29;20486;-77
2021/01/11 10:37:47;;;;;;;12.32;9.05;;;;;;;14.58;52.50;99981.16;4923754;29;20042;-77
2021/01/11 10:40:13;;;;;;;10.77;7.70;;;;;;;14.65;52.86;99965.19;4921861;29;20027;-77
2021/01/11 10:42:39;;;;;;;10.57;6.95;;;;;;;14.46;52.96;99968.28;4921849;29;20038;-77
2021/01/11 10:45:05;;;;;;;8.63;6.63;;;;;;;14.05;54.59;99970.50;4921636;29;20034;-77
2021/01/11 10:47:31;;;;;;;7.65;6.43;;;;;;;14.20;54.44;99963.00;4921078;29;20036;-77
2021/01/11 10:49:56;;;;;;;11.52;8.93;;;;;;;14.52;53.95;99957.53;4931664;29;20566;-77
2021/01/11 10:52:22;;;;;;;13.85;8.52;;;;;;;14.38;53.05;99955.44;4956779;29;20027;-77
2021/01/11 10:54:47;;;;;;;13.18;8.13;;;;;;;13.94;54.36;99948.06;4940812;29;20486;-77
2021/01/11 10:57:13;;;;;;;11.40;7.68;;;;;;;13.71;54.58;99953.13;4939878;29;20035;-77
2021/01/11 10:59:38;;;;;;;8.30;6.70;;;;;;;13.95;55.13;99949.66;4940781;29;20027;-77
2021/01/11 11:02:05;;;;;;;12.77;7.78;;;;;;;14.18;53.90;99946.59;4941956;29;20445;-77
2021/01/11 11:04:31;;;;;;;8.40;6.22;;;;;;;14.02;54.67;99943.31;4940717;29;20387;-77
2021/01/11 11:06:59;;;;;;;19.15;13.52;;;;;;;13.66;56.00;99940.31;4939377;29;20027;-77
2021/01/11 11:09:25;;;;;;;9.23;7.03;;;;;;;13.72;56.31;99935.97;4939426;29;20041;-77
2021/01/11 11:11:54;;;;;;;9.55;7.70;;;;;;;13.37;57.13;99928.16;4941765;29;20125;-78
2021/01/11 11:14:19;;;;;;;10.68;7.95;;;;;;;13.06;57.91;99924.69;4958353;29;20035;-77
2021/01/11 11:16:45;;;;;;;14.18;9.52;;;;;;;12.52;59.87;99919.78;4941489;29;20035;-77
2021/01/11 11:19:13;;;;;;;10.98;8.23;;;;;;;12.51;60.13;99921.72;4956549;29;20046;-77
2021/01/11 11:21:42;;;;;;;10.77;7.85;;;;;;;12.21;60.52;99913.44;4939349;29;20378;-77
2021/01/11 11:24:09;;;;;;;15.60;9.05;;;;;;;11.80;61.73;99913.28;4923553;29;20039;-76
2021/01/11 11:26:34;;;;;;;13.80;11.05;;;;;;;11.90;61.49;99911.06;4939107;29;20042;-77
2021/01/11 11:29:00;;;;;;;11.50;8.48;;;;;;;11.87;61.75;99898.66;4938684;29;20031;-77
2021/01/11 11:31:25;;;;;;;12.88;8.82;;;;;;;11.68;61.52;99899.59;4954981;29;20030;-77
2021/01/11 11:33:51;;;;;;;12.15;7.55;;;;;;;11.52;62.18;99898.97;4938618;29;20398;-77
2021/01/11 11:36:20;;;;;;;15.30;8.25;;;;;;;11.40;63.09;99894.41;4938920;29;20027;-77
2021/01/11 11:38:46;;;;;;;9.00;7.35;;;;;;;11.53;63.26;99881.06;4938664;29;20083;-77
2021/01/11 11:41:11;;;;;;;13.40;8.60;;;;;;;11.65;64.55;99883.59;4939303;29;20027;-75